sensor_id;sensor_type;location;lat;lon;timestamp;P1;durP1;ratioP1;P2;durP2;ratioP2
11058;SDS011;5582;59.272;15.220;2022-07-15T00:00:37;0.10;;;0.10;;
11058;SDS011;5582;59.272;15.220;2022-07-15T00:03:03;0.20;;;0.20;;
11058;SDS011;5582;59.272;15.220;2022-07-15T00:05:29;0.20;;;0.20;;
11058;SDS011;5582;59.272;15.220;2022-07-15T00:07:54;0.30;;;0.20;;
11058;SDS011;5582;59.272;15.220;2022-07-15T00:10:23;0.20;;;0.20;;
11058;SDS011;5582;59.272;15.220;2022-07-15T00:12:53;0.27;;;0.27;;
11058;SDS011;5582;59.272;15.220;2022-07-15T00:15:21;0.17;;;0.13;;
11058;SDS011;5582;59.272;15.220;2022-07-15T00:17:50;0.10;;;0.10;;
11058;SDS011;5582;59.272;15.220;2022-07-15T00:20:17;1.70;;;0.20;;
11058;SDS011;5582;59.272;15.220;2022-07-15T00:22:43;0.30;;;0.20;;
11058;SDS011;5582;59.272;15.220;2022-07-15T00:25:10;0.30;;;0.20;;
11058;SDS011;5582;59.272;15.220;2022-07-15T00:27:48;0.10;;;0.10;;
11058;SDS011;5582;59.272;15.220;2022-07-15T00:30:15;0.20;;;0.10;;
11058;SDS011;5582;59.272;15.220;2022-07-15T00:32:41;0.40;;;0.40;;
11058;SDS011;5582;59.272;15.220;2022-07-15T00:35:07;1.60;;;0.10;;
11058;SDS011;5582;59.272;15.220;2022-07-15T00:37:32;1.90;;;0.20;;
11058;SDS011;5582;59.272;15.220;2022-07-15T00:39:58;0.50;;;0.20;;
11058;SDS011;5582;59.272;15.220;2022-07-15T00:42:24;0.37;;;0.30;;
11058;SDS011;5582;59.272;15.220;2022-07-15T00:45:09;0.10;;;0.10;;
11058;SDS011;5582;59.272;15.220;2022-07-15T00:47:35;0.90;;;0.10;;
11058;SDS011;5582;59.272;15.220;2022-07-15T00:50:01;0.20;;;0.10;;
11058;SDS011;5582;59.272;15.220;2022-07-15T00:52:26;2.93;;;0.30;;
11058;SDS011;5582;59.272;15.220;2022-07-15T00:54:53;0.87;;;0.60;;
11058;SDS011;5582;59.272;15.220;2022-07-15T00:57:26;1.07;;;0.10;;
11058;SDS011;5582;59.272;15.220;2022-07-15T00:59:53;0.10;;;0.10;;
11058;SDS011;5582;59.272;15.220;2022-07-15T01:02:20;0.80;;;0.20;;
11058;SDS011;5582;59.272;15.220;2022-07-15T01:04:47;0.63;;;0.10;;
11058;SDS011;5582;59.272;15.220;2022-07-15T01:07:13;0.17;;;0.17;;
11058;SDS011;5582;59.272;15.220;2022-07-15T01:09:38;0.30;;;0.10;;
11058;SDS011;5582;59.272;15.220;2022-07-15T01:12:04;0.20;;;0.20;;
11058;SDS011;5582;59.272;15.220;2022-07-15T01:14:30;4.30;;;0.40;;
11058;SDS011;5582;59.272;15.220;2022-07-15T01:16:56;0.50;;;0.20;;
11058;SDS011;5582;59.272;15.220;2022-07-15T01:19:22;1.03;;;0.23;;
11058;SDS011;5582;59.272;15.220;2022-07-15T01:21:47;2.40;;;0.30;;
11058;SDS011;5582;59.272;15.220;2022-07-15T01:24:13;0.60;;;0.30;;
11058;SDS011;5582;59.272;15.220;2022-07-15T01:26:38;0.20;;;0.20;;
11058;SDS011;5582;59.272;15.220;2022-07-15T01:29:05;1.70;;;0.30;;
11058;SDS011;5582;59.272;15.220;2022-07-15T01:31:31;2.73;;;0.40;;
11058;SDS011;5582;59.272;15.220;2022-07-15T01:33:56;0.27;;;0.20;;
11058;SDS011;5582;59.272;15.220;2022-07-15T01:36:22;1.70;;;0.37;;
11058;SDS011;5582;59.272;15.220;2022-07-15T01:38:48;0.90;;;0.50;;
11058;SDS011;5582;59.272;15.220;2022-07-15T01:41:14;1.03;;;0.30;;
11058;SDS011;5582;59.272;15.220;2022-07-15T01:43:40;0.30;;;0.23;;
11058;SDS011;5582;59.272;15.220;2022-07-15T01:46:05;2.67;;;0.40;;
11058;SDS011;5582;59.272;15.220;2022-07-15T01:48:31;0.53;;;0.30;;
11058;SDS011;5582;59.272;15.220;2022-07-15T01:51:15;1.40;;;0.50;;
11058;SDS011;5582;59.272;15.220;2022-07-15T01:53:40;2.33;;;0.60;;
11058;SDS011;5582;59.272;15.220;2022-07-15T01:56:06;3.50;;;0.50;;
11058;SDS011;5582;59.272;15.220;2022-07-15T01:58:32;2.37;;;0.60;;
11058;SDS011;5582;59.272;15.220;2022-07-15T02:00:58;0.60;;;0.40;;
11058;SDS011;5582;59.272;15.220;2022-07-15T02:03:24;1.00;;;0.30;;
11058;SDS011;5582;59.272;15.220;2022-07-15T02:05:49;2.23;;;0.50;;
11058;SDS011;5582;59.272;15.220;2022-07-15T02:08:15;0.70;;;0.30;;
11058;SDS011;5582;59.272;15.220;2022-07-15T02:10:40;2.43;;;0.50;;
11058;SDS011;5582;59.272;15.220;2022-07-15T02:13:10;2.73;;;0.80;;
11058;SDS011;5582;59.272;15.220;2022-07-15T02:15:37;0.77;;;0.40;;
11058;SDS011;5582;59.272;15.220;2022-07-15T02:18:04;2.20;;;0.40;;
11058;SDS011;5582;59.272;15.220;2022-07-15T02:20:30;1.13;;;0.40;;
11058;SDS011;5582;59.272;15.220;2022-07-15T02:22:57;1.23;;;0.37;;
11058;SDS011;5582;59.272;15.220;2022-07-15T02:25:27;1.90;;;0.50;;
11058;SDS011;5582;59.272;15.220;2022-07-15T02:27:56;3.73;;;0.67;;
11058;SDS011;5582;59.272;15.220;2022-07-15T02:30:24;3.20;;;0.80;;
11058;SDS011;5582;59.272;15.220;2022-07-15T02:32:50;4.00;;;0.83;;
11058;SDS011;5582;59.272;15.220;2022-07-15T02:35:16;1.60;;;0.70;;
11058;SDS011;5582;59.272;15.220;2022-07-15T02:37:41;2.50;;;0.70;;
11058;SDS011;5582;59.272;15.220;2022-07-15T02:40:08;1.43;;;0.47;;
11058;SDS011;5582;59.272;15.220;2022-07-15T02:42:34;3.93;;;0.70;;
11058;SDS011;5582;59.272;15.220;2022-07-15T02:45:01;2.33;;;0.90;;
11058;SDS011;5582;59.272;15.220;2022-07-15T02:47:27;2.10;;;0.60;;
11058;SDS011;5582;59.272;15.220;2022-07-15T02:49:52;2.37;;;0.57;;
11058;SDS011;5582;59.272;15.220;2022-07-15T02:52:18;2.83;;;0.60;;
11058;SDS011;5582;59.272;15.220;2022-07-15T02:54:44;5.20;;;0.80;;
11058;SDS011;5582;59.272;15.220;2022-07-15T02:57:10;2.23;;;0.80;;
11058;SDS011;5582;59.272;15.220;2022-07-15T02:59:36;6.43;;;1.10;;
11058;SDS011;5582;59.272;15.220;2022-07-15T03:02:01;2.17;;;0.90;;
11058;SDS011;5582;59.272;15.220;2022-07-15T03:04:27;2.00;;;0.87;;
11058;SDS011;5582;59.272;15.220;2022-07-15T03:06:53;5.17;;;0.97;;
11058;SDS011;5582;59.272;15.220;2022-07-15T03:09:18;2.83;;;0.80;;
11058;SDS011;5582;59.272;15.220;2022-07-15T03:11:44;1.90;;;0.63;;
11058;SDS011;5582;59.272;15.220;2022-07-15T03:14:10;2.10;;;0.80;;
11058;SDS011;5582;59.272;15.220;2022-07-15T03:16:35;2.30;;;0.77;;
11058;SDS011;5582;59.272;15.220;2022-07-15T03:19:01;3.70;;;0.90;;
11058;SDS011;5582;59.272;15.220;2022-07-15T03:21:27;6.20;;;1.13;;
11058;SDS011;5582;59.272;15.220;2022-07-15T03:23:52;5.57;;;1.00;;
11058;SDS011;5582;59.272;15.220;2022-07-15T03:26:19;4.10;;;1.03;;
11058;SDS011;5582;59.272;15.220;2022-07-15T03:28:45;1.97;;;0.77;;
11058;SDS011;5582;59.272;15.220;2022-07-15T03:31:11;3.23;;;0.77;;
11058;SDS011;5582;59.272;15.220;2022-07-15T03:33:37;2.40;;;0.73;;
11058;SDS011;5582;59.272;15.220;2022-07-15T03:36:03;4.40;;;0.90;;
11058;SDS011;5582;59.272;15.220;2022-07-15T03:38:30;2.33;;;0.83;;
11058;SDS011;5582;59.272;15.220;2022-07-15T03:40:56;1.70;;;0.60;;
11058;SDS011;5582;59.272;15.220;2022-07-15T03:43:21;3.80;;;1.13;;
11058;SDS011;5582;59.272;15.220;2022-07-15T03:45:51;3.50;;;0.93;;
11058;SDS011;5582;59.272;15.220;2022-07-15T03:48:18;4.40;;;1.10;;
11058;SDS011;5582;59.272;15.220;2022-07-15T03:50:43;0.93;;;0.60;;
11058;SDS011;5582;59.272;15.220;2022-07-15T03:53:09;3.47;;;1.00;;
11058;SDS011;5582;59.272;15.220;2022-07-15T03:55:35;3.63;;;0.90;;
11058;SDS011;5582;59.272;15.220;2022-07-15T03:58:02;5.03;;;0.80;;
11058;SDS011;5582;59.272;15.220;2022-07-15T04:00:29;4.07;;;1.00;;
11058;SDS011;5582;59.272;15.220;2022-07-15T04:02:55;2.63;;;0.77;;
11058;SDS011;5582;59.272;15.220;2022-07-15T04:05:20;4.40;;;1.10;;
11058;SDS011;5582;59.272;15.220;2022-07-15T04:07:47;3.67;;;0.70;;
11058;SDS011;5582;59.272;15.220;2022-07-15T04:10:13;3.40;;;1.17;;
11058;SDS011;5582;59.272;15.220;2022-07-15T04:12:39;3.33;;;1.07;;
11058;SDS011;5582;59.272;15.220;2022-07-15T04:15:06;5.27;;;0.90;;
11058;SDS011;5582;59.272;15.220;2022-07-15T04:17:32;5.27;;;1.17;;
11058;SDS011;5582;59.272;15.220;2022-07-15T04:19:58;2.67;;;0.73;;
11058;SDS011;5582;59.272;15.220;2022-07-15T04:22:24;6.40;;;1.20;;
11058;SDS011;5582;59.272;15.220;2022-07-15T04:24:50;3.47;;;0.93;;
11058;SDS011;5582;59.272;15.220;2022-07-15T04:27:15;8.20;;;1.00;;
11058;SDS011;5582;59.272;15.220;2022-07-15T04:29:41;3.60;;;1.03;;
11058;SDS011;5582;59.272;15.220;2022-07-15T04:32:07;2.97;;;1.00;;
11058;SDS011;5582;59.272;15.220;2022-07-15T04:34:32;5.77;;;0.90;;
11058;SDS011;5582;59.272;15.220;2022-07-15T04:36:58;5.27;;;1.00;;
11058;SDS011;5582;59.272;15.220;2022-07-15T04:39:24;3.07;;;0.80;;
11058;SDS011;5582;59.272;15.220;2022-07-15T04:41:49;3.90;;;0.93;;
11058;SDS011;5582;59.272;15.220;2022-07-15T04:44:16;3.60;;;0.93;;
11058;SDS011;5582;59.272;15.220;2022-07-15T04:46:43;7.03;;;1.03;;
11058;SDS011;5582;59.272;15.220;2022-07-15T04:49:08;4.77;;;1.07;;
11058;SDS011;5582;59.272;15.220;2022-07-15T04:51:53;4.60;;;1.00;;
11058;SDS011;5582;59.272;15.220;2022-07-15T04:54:18;3.83;;;1.10;;
11058;SDS011;5582;59.272;15.220;2022-07-15T04:56:44;1.90;;;0.77;;
11058;SDS011;5582;59.272;15.220;2022-07-15T04:59:09;8.40;;;1.23;;
11058;SDS011;5582;59.272;15.220;2022-07-15T05:01:35;5.47;;;0.90;;
11058;SDS011;5582;59.272;15.220;2022-07-15T05:04:01;4.27;;;1.17;;
11058;SDS011;5582;59.272;15.220;2022-07-15T05:06:26;3.30;;;0.90;;
11058;SDS011;5582;59.272;15.220;2022-07-15T05:08:52;2.63;;;0.70;;
11058;SDS011;5582;59.272;15.220;2022-07-15T05:11:18;4.17;;;1.00;;
11058;SDS011;5582;59.272;15.220;2022-07-15T05:13:44;5.20;;;1.07;;
11058;SDS011;5582;59.272;15.220;2022-07-15T05:16:09;4.17;;;1.30;;
11058;SDS011;5582;59.272;15.220;2022-07-15T05:18:35;2.53;;;0.93;;
11058;SDS011;5582;59.272;15.220;2022-07-15T05:21:02;7.30;;;1.00;;
11058;SDS011;5582;59.272;15.220;2022-07-15T05:23:27;3.87;;;1.13;;
11058;SDS011;5582;59.272;15.220;2022-07-15T05:25:53;4.40;;;1.00;;
11058;SDS011;5582;59.272;15.220;2022-07-15T05:28:19;5.23;;;1.17;;
11058;SDS011;5582;59.272;15.220;2022-07-15T05:30:45;3.87;;;0.90;;
11058;SDS011;5582;59.272;15.220;2022-07-15T05:33:10;3.73;;;1.17;;
11058;SDS011;5582;59.272;15.220;2022-07-15T05:35:36;4.27;;;0.80;;
11058;SDS011;5582;59.272;15.220;2022-07-15T05:38:02;5.07;;;0.90;;
11058;SDS011;5582;59.272;15.220;2022-07-15T05:40:28;4.23;;;0.80;;
11058;SDS011;5582;59.272;15.220;2022-07-15T05:42:54;3.70;;;0.80;;
11058;SDS011;5582;59.272;15.220;2022-07-15T05:45:20;2.47;;;0.83;;
11058;SDS011;5582;59.272;15.220;2022-07-15T05:47:49;6.20;;;0.90;;
11058;SDS011;5582;59.272;15.220;2022-07-15T05:50:15;3.63;;;0.80;;
11058;SDS011;5582;59.272;15.220;2022-07-15T05:52:41;3.90;;;0.70;;
11058;SDS011;5582;59.272;15.220;2022-07-15T05:55:07;4.03;;;1.03;;
11058;SDS011;5582;59.272;15.220;2022-07-15T05:57:32;6.30;;;0.90;;
11058;SDS011;5582;59.272;15.220;2022-07-15T05:59:58;3.43;;;0.93;;
11058;SDS011;5582;59.272;15.220;2022-07-15T06:02:24;1.83;;;0.73;;
11058;SDS011;5582;59.272;15.220;2022-07-15T06:04:50;3.40;;;0.83;;
11058;SDS011;5582;59.272;15.220;2022-07-15T06:07:15;2.60;;;0.73;;
11058;SDS011;5582;59.272;15.220;2022-07-15T06:09:41;4.63;;;0.87;;
11058;SDS011;5582;59.272;15.220;2022-07-15T06:12:07;3.60;;;0.80;;
11058;SDS011;5582;59.272;15.220;2022-07-15T06:14:34;2.80;;;0.97;;
11058;SDS011;5582;59.272;15.220;2022-07-15T06:17:00;3.87;;;0.70;;
11058;SDS011;5582;59.272;15.220;2022-07-15T06:19:26;3.97;;;0.83;;
11058;SDS011;5582;59.272;15.220;2022-07-15T06:21:51;2.40;;;0.70;;
11058;SDS011;5582;59.272;15.220;2022-07-15T06:24:17;3.80;;;0.70;;
11058;SDS011;5582;59.272;15.220;2022-07-15T06:26:44;3.10;;;0.80;;
11058;SDS011;5582;59.272;15.220;2022-07-15T06:29:09;2.17;;;0.60;;
11058;SDS011;5582;59.272;15.220;2022-07-15T06:31:35;2.03;;;0.83;;
11058;SDS011;5582;59.272;15.220;2022-07-15T06:34:01;1.67;;;0.50;;
11058;SDS011;5582;59.272;15.220;2022-07-15T06:36:26;2.83;;;1.00;;
11058;SDS011;5582;59.272;15.220;2022-07-15T06:38:52;4.00;;;0.83;;
11058;SDS011;5582;59.272;15.220;2022-07-15T06:41:19;4.03;;;1.00;;
11058;SDS011;5582;59.272;15.220;2022-07-15T06:43:44;4.40;;;0.97;;
11058;SDS011;5582;59.272;15.220;2022-07-15T06:46:10;1.37;;;0.73;;
11058;SDS011;5582;59.272;15.220;2022-07-15T06:48:37;2.57;;;0.70;;
11058;SDS011;5582;59.272;15.220;2022-07-15T06:51:04;3.07;;;0.97;;
11058;SDS011;5582;59.272;15.220;2022-07-15T06:53:30;4.63;;;1.00;;
11058;SDS011;5582;59.272;15.220;2022-07-15T06:55:56;2.93;;;0.83;;
11058;SDS011;5582;59.272;15.220;2022-07-15T06:58:22;2.33;;;0.70;;
11058;SDS011;5582;59.272;15.220;2022-07-15T07:00:47;3.43;;;0.83;;
11058;SDS011;5582;59.272;15.220;2022-07-15T07:03:13;4.20;;;1.00;;
11058;SDS011;5582;59.272;15.220;2022-07-15T07:05:39;2.17;;;0.57;;
11058;SDS011;5582;59.272;15.220;2022-07-15T07:08:04;4.07;;;0.83;;
11058;SDS011;5582;59.272;15.220;2022-07-15T07:10:30;2.67;;;0.70;;
11058;SDS011;5582;59.272;15.220;2022-07-15T07:12:56;1.97;;;0.80;;
11058;SDS011;5582;59.272;15.220;2022-07-15T07:15:22;3.43;;;0.90;;
11058;SDS011;5582;59.272;15.220;2022-07-15T07:17:49;2.60;;;0.77;;
11058;SDS011;5582;59.272;15.220;2022-07-15T07:20:17;1.57;;;0.60;;
11058;SDS011;5582;59.272;15.220;2022-07-15T07:22:43;2.43;;;0.93;;
11058;SDS011;5582;59.272;15.220;2022-07-15T07:25:09;3.13;;;0.90;;
11058;SDS011;5582;59.272;15.220;2022-07-15T07:27:34;2.50;;;0.80;;
11058;SDS011;5582;59.272;15.220;2022-07-15T07:30:00;2.20;;;0.60;;
11058;SDS011;5582;59.272;15.220;2022-07-15T07:32:29;1.37;;;0.70;;
11058;SDS011;5582;59.272;15.220;2022-07-15T07:34:56;2.97;;;0.90;;
11058;SDS011;5582;59.272;15.220;2022-07-15T07:37:21;2.93;;;0.90;;
11058;SDS011;5582;59.272;15.220;2022-07-15T07:39:48;2.73;;;0.80;;
11058;SDS011;5582;59.272;15.220;2022-07-15T07:42:14;3.50;;;1.00;;
11058;SDS011;5582;59.272;15.220;2022-07-15T07:44:40;4.43;;;1.00;;
11058;SDS011;5582;59.272;15.220;2022-07-15T07:47:07;3.27;;;0.80;;
11058;SDS011;5582;59.272;15.220;2022-07-15T07:49:33;2.73;;;0.80;;
11058;SDS011;5582;59.272;15.220;2022-07-15T07:51:59;4.13;;;0.73;;
11058;SDS011;5582;59.272;15.220;2022-07-15T07:54:24;4.00;;;0.90;;
11058;SDS011;5582;59.272;15.220;2022-07-15T07:56:50;2.97;;;0.77;;
11058;SDS011;5582;59.272;15.220;2022-07-15T07:59:16;3.20;;;0.93;;
11058;SDS011;5582;59.272;15.220;2022-07-15T08:01:42;1.73;;;0.67;;
11058;SDS011;5582;59.272;15.220;2022-07-15T08:04:07;3.03;;;0.77;;
11058;SDS011;5582;59.272;15.220;2022-07-15T08:06:33;2.30;;;0.70;;
11058;SDS011;5582;59.272;15.220;2022-07-15T08:08:59;1.73;;;0.60;;
11058;SDS011;5582;59.272;15.220;2022-07-15T08:11:25;2.07;;;0.67;;
11058;SDS011;5582;59.272;15.220;2022-07-15T08:13:51;2.53;;;0.70;;
11058;SDS011;5582;59.272;15.220;2022-07-15T08:16:18;5.60;;;0.93;;
11058;SDS011;5582;59.272;15.220;2022-07-15T08:18:43;0.83;;;0.40;;
11058;SDS011;5582;59.272;15.220;2022-07-15T08:21:09;2.57;;;0.83;;
11058;SDS011;5582;59.272;15.220;2022-07-15T08:23:35;1.73;;;0.60;;
11058;SDS011;5582;59.272;15.220;2022-07-15T08:26:00;2.13;;;0.60;;
11058;SDS011;5582;59.272;15.220;2022-07-15T08:28:26;1.77;;;0.43;;
11058;SDS011;5582;59.272;15.220;2022-07-15T08:30:52;2.77;;;0.53;;
11058;SDS011;5582;59.272;15.220;2022-07-15T08:33:17;1.50;;;0.60;;
11058;SDS011;5582;59.272;15.220;2022-07-15T08:35:43;1.83;;;0.53;;
11058;SDS011;5582;59.272;15.220;2022-07-15T08:38:09;1.93;;;0.50;;
11058;SDS011;5582;59.272;15.220;2022-07-15T08:40:36;1.97;;;0.53;;
11058;SDS011;5582;59.272;15.220;2022-07-15T08:43:05;3.83;;;0.83;;
11058;SDS011;5582;59.272;15.220;2022-07-15T08:45:36;1.03;;;0.53;;
11058;SDS011;5582;59.272;15.220;2022-07-15T08:48:03;2.07;;;0.60;;
11058;SDS011;5582;59.272;15.220;2022-07-15T08:50:30;6.80;;;0.80;;
11058;SDS011;5582;59.272;15.220;2022-07-15T08:52:57;1.73;;;0.60;;
11058;SDS011;5582;59.272;15.220;2022-07-15T08:55:23;7.13;;;1.00;;
11058;SDS011;5582;59.272;15.220;2022-07-15T08:57:49;7.67;;;0.80;;
11058;SDS011;5582;59.272;15.220;2022-07-15T09:00:17;5.67;;;0.90;;
11058;SDS011;5582;59.272;15.220;2022-07-15T09:02:48;3.20;;;0.60;;
11058;SDS011;5582;59.272;15.220;2022-07-15T09:05:24;7.07;;;0.60;;
11058;SDS011;5582;59.272;15.220;2022-07-15T09:07:56;4.67;;;0.80;;
11058;SDS011;5582;59.272;15.220;2022-07-15T09:10:40;1.97;;;0.60;;
11058;SDS011;5582;59.272;15.220;2022-07-15T09:13:12;2.60;;;0.70;;
11058;SDS011;5582;59.272;15.220;2022-07-15T09:15:57;1.13;;;0.50;;
11058;SDS011;5582;59.272;15.220;2022-07-15T09:18:27;4.17;;;0.70;;
11058;SDS011;5582;59.272;15.220;2022-07-15T09:20:54;1.33;;;0.30;;
11058;SDS011;5582;59.272;15.220;2022-07-15T09:23:22;5.43;;;0.40;;
11058;SDS011;5582;59.272;15.220;2022-07-15T09:25:55;5.50;;;0.63;;
11058;SDS011;5582;59.272;15.220;2022-07-15T09:28:34;1.57;;;0.53;;
11058;SDS011;5582;59.272;15.220;2022-07-15T09:31:03;2.50;;;0.40;;
11058;SDS011;5582;59.272;15.220;2022-07-15T09:33:49;3.37;;;0.70;;
11058;SDS011;5582;59.272;15.220;2022-07-15T09:36:17;2.23;;;0.40;;
11058;SDS011;5582;59.272;15.220;2022-07-15T09:41:40;1.27;;;0.40;;
11058;SDS011;5582;59.272;15.220;2022-07-15T09:44:16;1.23;;;0.47;;
11058;SDS011;5582;59.272;15.220;2022-07-15T09:46:52;2.00;;;0.60;;
11058;SDS011;5582;59.272;15.220;2022-07-15T09:51:51;1.17;;;0.40;;
11058;SDS011;5582;59.272;15.220;2022-07-15T09:54:19;1.90;;;0.37;;
11058;SDS011;5582;59.272;15.220;2022-07-15T09:56:46;4.10;;;0.77;;
11058;SDS011;5582;59.272;15.220;2022-07-15T09:59:12;2.20;;;0.40;;
11058;SDS011;5582;59.272;15.220;2022-07-15T10:01:39;1.50;;;0.60;;
11058;SDS011;5582;59.272;15.220;2022-07-15T10:04:06;2.83;;;0.67;;
11058;SDS011;5582;59.272;15.220;2022-07-15T10:06:32;1.40;;;0.47;;
11058;SDS011;5582;59.272;15.220;2022-07-15T10:09:03;0.83;;;0.40;;
11058;SDS011;5582;59.272;15.220;2022-07-15T10:11:31;2.83;;;0.70;;
11058;SDS011;5582;59.272;15.220;2022-07-15T10:19:19;2.63;;;0.53;;
11058;SDS011;5582;59.272;15.220;2022-07-15T10:24:50;1.70;;;0.60;;
11058;SDS011;5582;59.272;15.220;2022-07-15T10:30:12;1.63;;;0.50;;
11058;SDS011;5582;59.272;15.220;2022-07-15T10:35:50;2.30;;;0.60;;
11058;SDS011;5582;59.272;15.220;2022-07-15T10:38:21;4.23;;;0.70;;
11058;SDS011;5582;59.272;15.220;2022-07-15T10:40:58;1.63;;;0.60;;
11058;SDS011;5582;59.272;15.220;2022-07-15T10:54:00;3.20;;;0.60;;
11058;SDS011;5582;59.272;15.220;2022-07-15T10:59:12;0.97;;;0.50;;
11058;SDS011;5582;59.272;15.220;2022-07-15T11:02:29;1.10;;;0.77;;
11058;SDS011;5582;59.272;15.220;2022-07-15T11:04:30;2.00;;;0.83;;
11058;SDS011;5582;59.272;15.220;2022-07-15T11:09:45;5.47;;;1.27;;
11058;SDS011;5582;59.272;15.220;2022-07-15T11:12:17;1.57;;;0.70;;
11058;SDS011;5582;59.272;15.220;2022-07-15T11:15:04;2.37;;;1.00;;
11058;SDS011;5582;59.272;15.220;2022-07-15T11:19:55;2.53;;;0.50;;
11058;SDS011;5582;59.272;15.220;2022-07-15T11:22:26;1.37;;;0.30;;
11058;SDS011;5582;59.272;15.220;2022-07-15T11:24:54;0.80;;;0.40;;
11058;SDS011;5582;59.272;15.220;2022-07-15T11:27:21;3.20;;;0.60;;
11058;SDS011;5582;59.272;15.220;2022-07-15T11:29:49;2.10;;;0.30;;
11058;SDS011;5582;59.272;15.220;2022-07-15T11:32:24;1.53;;;0.37;;
11058;SDS011;5582;59.272;15.220;2022-07-15T11:34:51;2.27;;;0.30;;
11058;SDS011;5582;59.272;15.220;2022-07-15T11:37:18;0.60;;;0.30;;
11058;SDS011;5582;59.272;15.220;2022-07-15T11:42:30;0.63;;;0.40;;
11058;SDS011;5582;59.272;15.220;2022-07-15T11:45:14;0.87;;;0.40;;
11058;SDS011;5582;59.272;15.220;2022-07-15T11:47:50;0.73;;;0.50;;
11058;SDS011;5582;59.272;15.220;2022-07-15T11:50:17;2.17;;;0.47;;
11058;SDS011;5582;59.272;15.220;2022-07-15T11:52:44;0.70;;;0.40;;
11058;SDS011;5582;59.272;15.220;2022-07-15T11:55:10;0.77;;;0.33;;
11058;SDS011;5582;59.272;15.220;2022-07-15T11:57:36;1.23;;;0.30;;
11058;SDS011;5582;59.272;15.220;2022-07-15T12:00:02;0.70;;;0.40;;
11058;SDS011;5582;59.272;15.220;2022-07-15T12:02:28;0.77;;;0.40;;
11058;SDS011;5582;59.272;15.220;2022-07-15T12:05:01;1.17;;;0.30;;
11058;SDS011;5582;59.272;15.220;2022-07-15T12:07:46;1.47;;;0.53;;
11058;SDS011;5582;59.272;15.220;2022-07-15T12:10:13;2.70;;;0.67;;
11058;SDS011;5582;59.272;15.220;2022-07-15T12:12:51;0.93;;;0.30;;
11058;SDS011;5582;59.272;15.220;2022-07-15T12:15:21;4.07;;;0.40;;
11058;SDS011;5582;59.272;15.220;2022-07-15T12:20:23;1.13;;;0.70;;
11058;SDS011;5582;59.272;15.220;2022-07-15T12:23:08;1.43;;;0.30;;
11058;SDS011;5582;59.272;15.220;2022-07-15T12:25:35;1.70;;;0.40;;
11058;SDS011;5582;59.272;15.220;2022-07-15T12:28:01;1.67;;;0.40;;
11058;SDS011;5582;59.272;15.220;2022-07-15T12:30:37;0.77;;;0.30;;
11058;SDS011;5582;59.272;15.220;2022-07-15T12:33:19;1.07;;;0.37;;
11058;SDS011;5582;59.272;15.220;2022-07-15T12:35:47;1.47;;;0.30;;
11058;SDS011;5582;59.272;15.220;2022-07-15T12:38:26;0.50;;;0.30;;
11058;SDS011;5582;59.272;15.220;2022-07-15T12:40:52;1.37;;;0.40;;
11058;SDS011;5582;59.272;15.220;2022-07-15T12:43:18;1.10;;;0.40;;
11058;SDS011;5582;59.272;15.220;2022-07-15T12:45:44;0.30;;;0.30;;
11058;SDS011;5582;59.272;15.220;2022-07-15T12:48:12;2.40;;;0.40;;
11058;SDS011;5582;59.272;15.220;2022-07-15T12:53:16;0.70;;;0.40;;
11058;SDS011;5582;59.272;15.220;2022-07-15T12:55:44;2.33;;;0.20;;
11058;SDS011;5582;59.272;15.220;2022-07-15T12:58:13;1.10;;;0.30;;
11058;SDS011;5582;59.272;15.220;2022-07-15T13:00:43;1.33;;;0.30;;
11058;SDS011;5582;59.272;15.220;2022-07-15T13:08:08;0.63;;;0.30;;
11058;SDS011;5582;59.272;15.220;2022-07-15T13:10:40;0.83;;;0.30;;
11058;SDS011;5582;59.272;15.220;2022-07-15T13:13:08;1.47;;;0.30;;
11058;SDS011;5582;59.272;15.220;2022-07-15T13:15:34;3.17;;;0.70;;
11058;SDS011;5582;59.272;15.220;2022-07-15T13:18:00;1.40;;;0.50;;
11058;SDS011;5582;59.272;15.220;2022-07-15T13:20:26;2.63;;;0.57;;
11058;SDS011;5582;59.272;15.220;2022-07-15T13:22:51;0.50;;;0.20;;
11058;SDS011;5582;59.272;15.220;2022-07-15T13:25:18;0.50;;;0.37;;
11058;SDS011;5582;59.272;15.220;2022-07-15T13:27:44;2.47;;;0.50;;
11058;SDS011;5582;59.272;15.220;2022-07-15T13:30:10;1.83;;;0.50;;
11058;SDS011;5582;59.272;15.220;2022-07-15T13:32:37;2.07;;;0.67;;
11058;SDS011;5582;59.272;15.220;2022-07-15T13:35:04;0.67;;;0.50;;
11058;SDS011;5582;59.272;15.220;2022-07-15T13:37:30;1.45;;;0.60;;
11058;SDS011;5582;59.272;15.220;2022-07-15T13:39:56;4.25;;;0.88;;
11058;SDS011;5582;59.272;15.220;2022-07-15T13:42:22;2.08;;;0.70;;
11058;SDS011;5582;59.272;15.220;2022-07-15T13:44:49;2.40;;;0.60;;
11058;SDS011;5582;59.272;15.220;2022-07-15T13:47:18;1.87;;;0.70;;
11058;SDS011;5582;59.272;15.220;2022-07-15T13:49:44;2.30;;;0.80;;
11058;SDS011;5582;59.272;15.220;2022-07-15T13:52:29;0.93;;;0.53;;
11058;SDS011;5582;59.272;15.220;2022-07-15T13:54:54;2.83;;;0.43;;
11058;SDS011;5582;59.272;15.220;2022-07-15T13:57:20;0.30;;;0.30;;
11058;SDS011;5582;59.272;15.220;2022-07-15T13:59:46;1.17;;;0.40;;
11058;SDS011;5582;59.272;15.220;2022-07-15T14:02:12;0.47;;;0.43;;
11058;SDS011;5582;59.272;15.220;2022-07-15T14:04:38;2.40;;;0.40;;
11058;SDS011;5582;59.272;15.220;2022-07-15T14:07:03;0.40;;;0.23;;
11058;SDS011;5582;59.272;15.220;2022-07-15T14:09:29;0.77;;;0.20;;
11058;SDS011;5582;59.272;15.220;2022-07-15T14:11:55;0.30;;;0.30;;
11058;SDS011;5582;59.272;15.220;2022-07-15T14:14:21;0.60;;;0.40;;
11058;SDS011;5582;59.272;15.220;2022-07-15T14:16:47;0.77;;;0.60;;
11058;SDS011;5582;59.272;15.220;2022-07-15T14:19:13;1.20;;;0.53;;
11058;SDS011;5582;59.272;15.220;2022-07-15T14:21:40;1.92;;;0.80;;
11058;SDS011;5582;59.272;15.220;2022-07-15T14:24:05;0.70;;;0.63;;
11058;SDS011;5582;59.272;15.220;2022-07-15T14:26:31;0.52;;;0.30;;
11058;SDS011;5582;59.272;15.220;2022-07-15T14:28:57;2.45;;;0.63;;
11058;SDS011;5582;59.272;15.220;2022-07-15T14:31:23;0.90;;;0.50;;
11058;SDS011;5582;59.272;15.220;2022-07-15T14:33:49;0.30;;;0.30;;
11058;SDS011;5582;59.272;15.220;2022-07-15T14:36:14;0.40;;;0.40;;
11058;SDS011;5582;59.272;15.220;2022-07-15T14:38:41;0.70;;;0.30;;
11058;SDS011;5582;59.272;15.220;2022-07-15T14:41:07;0.70;;;0.33;;
11058;SDS011;5582;59.272;15.220;2022-07-15T14:43:33;1.73;;;0.20;;
11058;SDS011;5582;59.272;15.220;2022-07-15T14:45:59;0.93;;;0.20;;
11058;SDS011;5582;59.272;15.220;2022-07-15T14:48:25;0.43;;;0.20;;
11058;SDS011;5582;59.272;15.220;2022-07-15T14:50:52;0.90;;;0.30;;
11058;SDS011;5582;59.272;15.220;2022-07-15T14:53:18;1.40;;;0.60;;
11058;SDS011;5582;59.272;15.220;2022-07-15T14:55:44;1.57;;;0.40;;
11058;SDS011;5582;59.272;15.220;2022-07-15T14:58:10;0.40;;;0.10;;
11058;SDS011;5582;59.272;15.220;2022-07-15T15:00:38;0.43;;;0.30;;
11058;SDS011;5582;59.272;15.220;2022-07-15T15:03:04;0.50;;;0.30;;
11058;SDS011;5582;59.272;15.220;2022-07-15T15:05:29;0.50;;;0.20;;
11058;SDS011;5582;59.272;15.220;2022-07-15T15:07:55;1.43;;;0.40;;
11058;SDS011;5582;59.272;15.220;2022-07-15T15:10:21;1.97;;;0.40;;
11058;SDS011;5582;59.272;15.220;2022-07-15T15:12:47;0.50;;;0.23;;
11058;SDS011;5582;59.272;15.220;2022-07-15T15:15:12;1.47;;;0.30;;
11058;SDS011;5582;59.272;15.220;2022-07-15T15:17:38;1.00;;;0.37;;
11058;SDS011;5582;59.272;15.220;2022-07-15T15:20:04;0.83;;;0.37;;
11058;SDS011;5582;59.272;15.220;2022-07-15T15:22:32;0.50;;;0.30;;
11058;SDS011;5582;59.272;15.220;2022-07-15T15:24:59;1.03;;;0.30;;
11058;SDS011;5582;59.272;15.220;2022-07-15T15:27:26;0.17;;;0.10;;
11058;SDS011;5582;59.272;15.220;2022-07-15T15:29:51;0.80;;;0.53;;
11058;SDS011;5582;59.272;15.220;2022-07-15T15:32:17;0.50;;;0.27;;
11058;SDS011;5582;59.272;15.220;2022-07-15T15:34:43;1.73;;;0.60;;
11058;SDS011;5582;59.272;15.220;2022-07-15T15:37:09;0.83;;;0.30;;
11058;SDS011;5582;59.272;15.220;2022-07-15T15:39:35;1.60;;;0.47;;